sensor_id;sensor_type;location;lat;lon;timestamp;pressure;altitude;pressure_sealevel;temperature;humidity
18900;BME280;9582;52.018;6.306;2022-11-15T00:00:31;100792.09;;;8.50;100.00
18900;BME280;9582;52.018;6.306;2022-11-15T00:03:17;100791.13;;;8.53;100.00
18900;BME280;9582;52.018;6.306;2022-11-15T00:06:04;100789.38;;;8.53;100.00
18900;BME280;9582;52.018;6.306;2022-11-15T00:08:49;100785.66;;;8.60;100.00
18900;BME280;9582;52.018;6.306;2022-11-15T00:11:34;100789.16;;;8.59;100.00
18900;BME280;9582;52.018;6.306;2022-11-15T00:14:20;100788.00;;;8.66;100.00
18900;BME280;9582;52.018;6.306;2022-11-15T00:17:05;100787.13;;;8.67;100.00
18900;BME280;9582;52.018;6.306;2022-11-15T00:19:50;100785.13;;;8.74;100.00
18900;BME280;9582;52.018;6.306;2022-11-15T00:22:36;100776.28;;;8.78;100.00
18900;BME280;9582;52.018;6.306;2022-11-15T00:25:22;100764.16;;;8.77;100.00
18900;BME280;9582;52.018;6.306;2022-11-15T00:28:07;100763.25;;;8.78;100.00
18900;BME280;9582;52.018;6.306;2022-11-15T00:30:53;100769.28;;;8.80;100.00
18900;BME280;9582;52.018;6.306;2022-11-15T00:33:38;100762.16;;;8.84;100.00
18900;BME280;9582;52.018;6.306;2022-11-15T00:36:23;100746.59;;;8.82;100.00
18900;BME280;9582;52.018;6.306;2022-11-15T00:39:10;100752.59;;;8.84;100.00
18900;BME280;9582;52.018;6.306;2022-11-15T00:41:55;100752.22;;;8.93;100.00
18900;BME280;9582;52.018;6.306;2022-11-15T00:44:40;100748.53;;;8.99;100.00
18900;BME280;9582;52.018;6.306;2022-11-15T00:47:25;100750.16;;;9.01;100.00
18900;BME280;9582;52.018;6.306;2022-11-15T00:50:11;100753.41;;;9.08;100.00
18900;BME280;9582;52.018;6.306;2022-11-15T00:52:56;100751.66;;;9.08;100.00
18900;BME280;9582;52.018;6.306;2022-11-15T00:55:43;100741.13;;;9.10;100.00
18900;BME280;9582;52.018;6.306;2022-11-15T00:58:28;100751.53;;;9.11;100.00
18900;BME280;9582;52.018;6.306;2022-11-15T01:01:13;100751.53;;;9.11;100.00
18900;BME280;9582;52.018;6.306;2022-11-15T01:03:58;100737.66;;;9.09;100.00
18900;BME280;9582;52.018;6.306;2022-11-15T01:06:43;100743.94;;;9.05;100.00
18900;BME280;9582;52.018;6.306;2022-11-15T01:09:29;100731.56;;;9.10;100.00
18900;BME280;9582;52.018;6.306;2022-11-15T01:12:15;100735.06;;;9.09;100.00
18900;BME280;9582;52.018;6.306;2022-11-15T01:15:00;100726.78;;;9.00;100.00
18900;BME280;9582;52.018;6.306;2022-11-15T01:17:46;100727.88;;;8.94;100.00
18900;BME280;9582;52.018;6.306;2022-11-15T01:20:31;100726.78;;;9.00;100.00
18900;BME280;9582;52.018;6.306;2022-11-15T01:23:16;100723.84;;;9.07;100.00
18900;BME280;9582;52.018;6.306;2022-11-15T01:26:04;100720.59;;;9.02;100.00
18900;BME280;9582;52.018;6.306;2022-11-15T01:28:50;100716.81;;;9.09;100.00
18900;BME280;9582;52.018;6.306;2022-11-15T01:31:36;100725.59;;;9.07;100.00
18900;BME280;9582;52.018;6.306;2022-11-15T01:34:21;100717.84;;;9.05;100.00
18900;BME280;9582;52.018;6.306;2022-11-15T01:37:07;100714.72;;;9.17;100.00
18900;BME280;9582;52.018;6.306;2022-11-15T01:39:52;100711.47;;;9.12;100.00
18900;BME280;9582;52.018;6.306;2022-11-15T01:42:37;100710.38;;;9.18;100.00
18900;BME280;9582;52.018;6.306;2022-11-15T01:45:24;100709.34;;;9.22;100.00
18900;BME280;9582;52.018;6.306;2022-11-15T01:48:10;100704.91;;;9.24;100.00
18900;BME280;9582;52.018;6.306;2022-11-15T01:50:56;100696.88;;;9.28;100.00
18900;BME280;9582;52.018;6.306;2022-11-15T01:53:43;100695.06;;;9.31;100.00
18900;BME280;9582;52.018;6.306;2022-11-15T01:56:33;100692.38;;;9.32;100.00
18900;BME280;9582;52.018;6.306;2022-11-15T01:59:21;100690.59;;;9.34;100.00
18900;BME280;9582;52.018;6.306;2022-11-15T02:02:08;100691.28;;;9.38;100.00
18900;BME280;9582;52.018;6.306;2022-11-15T02:04:54;100691.94;;;9.43;100.00
18900;BME280;9582;52.018;6.306;2022-11-15T02:07:39;100689.31;;;9.43;100.00
18900;BME280;9582;52.018;6.306;2022-11-15T02:10:25;100689.19;;;9.46;100.00
18900;BME280;9582;52.018;6.306;2022-11-15T02:13:10;100694.28;;;9.49;100.00
18900;BME280;9582;52.018;6.306;2022-11-15T02:16:04;100693.25;;;9.53;100.00
18900;BME280;9582;52.018;6.306;2022-11-15T02:18:55;100695.00;;;9.52;100.00
18900;BME280;9582;52.018;6.306;2022-11-15T02:21:45;100682.81;;;9.53;100.00
18900;BME280;9582;52.018;6.306;2022-11-15T02:24:58;100685.44;;;9.53;100.00
18900;BME280;9582;52.018;6.306;2022-11-15T02:28:06;100678.97;;;9.61;100.00
18900;BME280;9582;52.018;6.306;2022-11-15T02:31:00;100678.84;;;9.64;100.00
18900;BME280;9582;52.018;6.306;2022-11-15T02:33:53;100672.63;;;9.67;100.00
18900;BME280;9582;52.018;6.306;2022-11-15T02:36:49;100670.75;;;9.70;100.00
18900;BME280;9582;52.018;6.306;2022-11-15T02:39:43;100676.88;;;9.69;100.00
18900;BME280;9582;52.018;6.306;2022-11-15T02:42:33;100668.00;;;9.73;100.00
18900;BME280;9582;52.018;6.306;2022-11-15T02:45:47;100669.56;;;9.77;100.00
18900;BME280;9582;52.018;6.306;2022-11-15T02:48:35;100666.75;;;9.82;100.00
18900;BME280;9582;52.018;6.306;2022-11-15T02:51:21;100665.69;;;9.86;100.00
18900;BME280;9582;52.018;6.306;2022-11-15T02:54:07;100663.84;;;9.88;100.00
18900;BME280;9582;52.018;6.306;2022-11-15T02:56:53;100656.88;;;9.88;100.00
18900;BME280;9582;52.018;6.306;2022-11-15T03:00:03;100659.28;;;9.93;100.00
18900;BME280;9582;52.018;6.306;2022-11-15T03:03:03;100660.19;;;9.92;100.00
18900;BME280;9582;52.018;6.306;2022-11-15T03:06:00;100650.38;;;9.97;100.00
18900;BME280;9582;52.018;6.306;2022-11-15T03:08:57;100651.97;;;10.01;100.00
18900;BME280;9582;52.018;6.306;2022-11-15T03:11:50;100647.72;;;9.99;100.00
18900;BME280;9582;52.018;6.306;2022-11-15T03:14:45;100638.03;;;10.01;100.00
18900;BME280;9582;52.018;6.306;2022-11-15T03:17:36;100637.81;;;10.05;100.00
18900;BME280;9582;52.018;6.306;2022-11-15T03:20:25;100636.06;;;10.06;100.00
18900;BME280;9582;52.018;6.306;2022-11-15T03:23:13;100634.16;;;10.09;100.00
18900;BME280;9582;52.018;6.306;2022-11-15T03:25:59;100635.88;;;10.10;100.00
18900;BME280;9582;52.018;6.306;2022-11-15T03:28:49;100626.00;;;10.17;100.00
18900;BME280;9582;52.018;6.306;2022-11-15T03:31:38;100629.25;;;10.22;100.00
18900;BME280;9582;52.018;6.306;2022-11-15T03:34:37;100623.75;;;10.28;100.00
18900;BME280;9582;52.018;6.306;2022-11-15T03:37:30;100625.16;;;10.35;100.00
18900;BME280;9582;52.018;6.306;2022-11-15T03:40:22;100618.94;;;10.37;100.00
18900;BME280;9582;52.018;6.306;2022-11-15T03:43:14;100629.41;;;10.37;100.00
18900;BME280;9582;52.018;6.306;2022-11-15T03:46:02;100622.31;;;10.39;100.00
18900;BME280;9582;52.018;6.306;2022-11-15T03:48:51;100624.94;;;10.39;100.00
18900;BME280;9582;52.018;6.306;2022-11-15T03:51:37;100623.16;;;10.40;100.00
18900;BME280;9582;52.018;6.306;2022-11-15T03:54:22;100631.00;;;10.40;100.00
18900;BME280;9582;52.018;6.306;2022-11-15T03:57:09;100629.88;;;10.46;100.00
18900;BME280;9582;52.018;6.306;2022-11-15T03:59:54;100628.81;;;10.50;100.00
18900;BME280;9582;52.018;6.306;2022-11-15T04:02:40;100637.34;;;10.53;100.00
18900;BME280;9582;52.018;6.306;2022-11-15T04:05:24;100635.88;;;10.48;100.00
18900;BME280;9582;52.018;6.306;2022-11-15T04:08:10;100638.28;;;10.52;100.00
18900;BME280;9582;52.018;6.306;2022-11-15T04:10:55;100633.97;;;10.51;100.00
18900;BME280;9582;52.018;6.306;2022-11-15T04:13:41;100633.91;;;10.53;100.00
18900;BME280;9582;52.018;6.306;2022-11-15T04:16:26;100635.59;;;10.54;100.00
18900;BME280;9582;52.018;6.306;2022-11-15T04:19:11;100643.28;;;10.57;100.00
18900;BME280;9582;52.018;6.306;2022-11-15T04:22:11;100640.53;;;10.60;100.00
18900;BME280;9582;52.018;6.306;2022-11-15T04:25:14;100642.28;;;10.59;100.00
18900;BME280;9582;52.018;6.306;2022-11-15T04:27:59;100646.81;;;10.56;100.00
18900;BME280;9582;52.018;6.306;2022-11-15T04:30:45;100642.22;;;10.61;100.00
18900;BME280;9582;52.018;6.306;2022-11-15T04:33:31;100646.53;;;10.62;100.00
18900;BME280;9582;52.018;6.306;2022-11-15T04:36:16;100638.53;;;10.65;100.00
18900;BME280;9582;52.018;6.306;2022-11-15T04:39:19;100638.53;;;10.65;100.00
18900;BME280;9582;52.018;6.306;2022-11-15T04:42:04;100633.94;;;10.70;100.00
18900;BME280;9582;52.018;6.306;2022-11-15T04:44:49;100645.09;;;10.73;100.00
18900;BME280;9582;52.018;6.306;2022-11-15T04:47:36;100638.94;;;10.74;100.00
18900;BME280;9582;52.018;6.306;2022-11-15T04:50:21;100641.34;;;10.79;100.00
18900;BME280;9582;52.018;6.306;2022-11-15T04:53:06;100641.94;;;10.84;100.00
18900;BME280;9582;52.018;6.306;2022-11-15T04:55:51;100639.03;;;10.90;100.00
18900;BME280;9582;52.018;6.306;2022-11-15T04:58:37;100635.53;;;10.91;100.00
18900;BME280;9582;52.018;6.306;2022-11-15T05:01:22;100641.31;;;10.97;100.00
18900;BME280;9582;52.018;6.306;2022-11-15T05:04:08;100637.59;;;11.01;100.00
18900;BME280;9582;52.018;6.306;2022-11-15T05:07:04;100635.75;;;11.03;100.00
18900;BME280;9582;52.018;6.306;2022-11-15T05:09:50;100631.91;;;11.11;100.00
18900;BME280;9582;52.018;6.306;2022-11-15T05:12:35;100637.00;;;11.14;100.00
18900;BME280;9582;52.018;6.306;2022-11-15T05:15:20;100633.13;;;11.21;100.00
18900;BME280;9582;52.018;6.306;2022-11-15T05:18:05;100628.91;;;11.18;100.00
18900;BME280;9582;52.018;6.306;2022-11-15T05:20:52;100626.94;;;11.23;100.00
18900;BME280;9582;52.018;6.306;2022-11-15T05:23:38;100626.75;;;11.26;100.00
18900;BME280;9582;52.018;6.306;2022-11-15T05:26:23;100623.22;;;11.27;100.00
18900;BME280;9582;52.018;6.306;2022-11-15T05:29:09;100619.69;;;11.28;100.00
18900;BME280;9582;52.018;6.306;2022-11-15T05:31:54;100620.44;;;11.30;100.00
18900;BME280;9582;52.018;6.306;2022-11-15T05:34:40;100628.28;;;11.30;100.00
18900;BME280;9582;52.018;6.306;2022-11-15T05:37:26;100623.81;;;11.32;100.00
18900;BME280;9582;52.018;6.306;2022-11-15T05:40:13;100625.53;;;11.33;100.00
18900;BME280;9582;52.018;6.306;2022-11-15T05:43:00;100623.06;;;11.30;100.00
18900;BME280;9582;52.018;6.306;2022-11-15T05:45:47;100620.19;;;11.35;100.00
18900;BME280;9582;52.018;6.306;2022-11-15T05:48:34;100622.91;;;11.33;100.00
18900;BME280;9582;52.018;6.306;2022-11-15T05:51:22;100621.06;;;11.35;100.00
18900;BME280;9582;52.018;6.306;2022-11-15T05:54:10;100618.38;;;11.37;100.00
18900;BME280;9582;52.018;6.306;2022-11-15T05:56:55;100618.38;;;11.37;100.00
18900;BME280;9582;52.018;6.306;2022-11-15T05:59:42;100623.28;;;11.43;100.00
18900;BME280;9582;52.018;6.306;2022-11-15T06:02:28;100620.75;;;11.41;100.00
18900;BME280;9582;52.018;6.306;2022-11-15T06:05:13;100628.53;;;11.43;100.00
18900;BME280;9582;52.018;6.306;2022-11-15T06:07:58;100623.34;;;11.41;100.00
18900;BME280;9582;52.018;6.306;2022-11-15T06:10:45;100629.19;;;11.46;100.00
18900;BME280;9582;52.018;6.306;2022-11-15T06:13:30;100627.53;;;11.45;100.00
18900;BME280;9582;52.018;6.306;2022-11-15T06:16:16;100630.91;;;11.47;100.00
18900;BME280;9582;52.018;6.306;2022-11-15T06:19:02;100629.03;;;11.49;100.00
18900;BME280;9582;52.018;6.306;2022-11-15T06:21:47;100635.06;;;11.51;100.00
18900;BME280;9582;52.018;6.306;2022-11-15T06:24:32;100634.81;;;11.56;100.00
18900;BME280;9582;52.018;6.306;2022-11-15T06:27:18;100639.22;;;11.55;100.00
18900;BME280;9582;52.018;6.306;2022-11-15T06:30:04;100635.84;;;11.53;100.00
18900;BME280;9582;52.018;6.306;2022-11-15T06:32:50;100641.06;;;11.53;100.00
18900;BME280;9582;52.018;6.306;2022-11-15T06:35:35;100641.97;;;11.52;100.00
18900;BME280;9582;52.018;6.306;2022-11-15T06:38:20;100637.84;;;11.48;100.00
18900;BME280;9582;52.018;6.306;2022-11-15T06:41:07;100640.53;;;11.47;100.00
18900;BME280;9582;52.018;6.306;2022-11-15T06:43:54;100648.31;;;11.48;100.00
18900;BME280;9582;52.018;6.306;2022-11-15T06:46:39;100645.69;;;11.48;100.00
18900;BME280;9582;52.018;6.306;2022-11-15T06:49:25;100654.47;;;11.47;100.00
18900;BME280;9582;52.018;6.306;2022-11-15T06:52:10;100656.09;;;11.50;100.00
18900;BME280;9582;52.018;6.306;2022-11-15T06:54:55;100648.16;;;11.51;100.00
18900;BME280;9582;52.018;6.306;2022-11-15T06:57:46;100654.91;;;11.55;100.00
18900;BME280;9582;52.018;6.306;2022-11-15T07:00:33;100655.84;;;11.54;100.00
18900;BME280;9582;52.018;6.306;2022-11-15T07:03:18;100661.06;;;11.54;100.00
18900;BME280;9582;52.018;6.306;2022-11-15T07:06:03;100664.53;;;11.55;100.00
18900;BME280;9582;52.018;6.306;2022-11-15T07:08:48;100657.69;;;11.52;100.00
18900;BME280;9582;52.018;6.306;2022-11-15T07:11:34;100666.50;;;11.51;100.00
18900;BME280;9582;52.018;6.306;2022-11-15T07:14:19;100663.78;;;11.53;100.00
18900;BME280;9582;52.018;6.306;2022-11-15T07:17:05;100661.88;;;11.56;100.00
18900;BME280;9582;52.018;6.306;2022-11-15T07:19:51;100649.53;;;11.58;100.00
18900;BME280;9582;52.018;6.306;2022-11-15T07:22:36;100649.53;;;11.58;100.00
18900;BME280;9582;52.018;6.306;2022-11-15T07:25:21;100652.06;;;11.60;100.00
18900;BME280;9582;52.018;6.306;2022-11-15T07:28:06;100659.69;;;11.65;100.00
18900;BME280;9582;52.018;6.306;2022-11-15T07:30:51;100656.13;;;11.66;100.00
18900;BME280;9582;52.018;6.306;2022-11-15T07:33:38;100658.47;;;11.72;100.00
18900;BME280;9582;52.018;6.306;2022-11-15T07:36:23;100672.41;;;11.72;100.00
18900;BME280;9582;52.018;6.306;2022-11-15T07:39:08;100667.28;;;11.71;100.00
18900;BME280;9582;52.018;6.306;2022-11-15T07:41:53;100669.03;;;11.70;100.00
18900;BME280;9582;52.018;6.306;2022-11-15T07:44:58;100666.44;;;11.69;100.00
18900;BME280;9582;52.018;6.306;2022-11-15T07:47:45;100666.53;;;11.67;100.00
18900;BME280;9582;52.018;6.306;2022-11-15T07:50:31;100670.00;;;11.68;100.00
18900;BME280;9582;52.018;6.306;2022-11-15T07:53:16;100678.66;;;11.70;100.00
18900;BME280;9582;52.018;6.306;2022-11-15T07:56:02;100681.41;;;11.67;100.00
18900;BME280;9582;52.018;6.306;2022-11-15T07:58:47;100680.50;;;11.68;100.00
18900;BME280;9582;52.018;6.306;2022-11-15T08:01:34;100677.88;;;11.68;100.00
18900;BME280;9582;52.018;6.306;2022-11-15T08:04:19;100677.00;;;11.67;100.00
18900;BME280;9582;52.018;6.306;2022-11-15T08:07:05;100677.81;;;11.69;100.00
18900;BME280;9582;52.018;6.306;2022-11-15T08:09:50;100677.00;;;11.67;100.00
18900;BME280;9582;52.018;6.306;2022-11-15T08:12:35;100678.66;;;11.70;100.00
18900;BME280;9582;52.018;6.306;2022-11-15T08:15:20;100678.50;;;11.73;100.00
18900;BME280;9582;52.018;6.306;2022-11-15T08:18:06;100673.16;;;11.74;100.00
18900;BME280;9582;52.018;6.306;2022-11-15T08:20:53;100680.88;;;11.77;100.00
18900;BME280;9582;52.018;6.306;2022-11-15T08:23:44;100686.28;;;11.74;100.00
18900;BME280;9582;52.018;6.306;2022-11-15T08:26:29;100681.03;;;11.74;100.00
18900;BME280;9582;52.018;6.306;2022-11-15T08:29:14;100682.66;;;11.77;100.00
18900;BME280;9582;52.018;6.306;2022-11-15T08:32:00;100676.66;;;11.75;100.00
18900;BME280;9582;52.018;6.306;2022-11-15T08:34:45;100683.44;;;11.79;100.00
18900;BME280;9582;52.018;6.306;2022-11-15T08:37:30;100676.34;;;11.81;100.00
18900;BME280;9582;52.018;6.306;2022-11-15T08:40:17;100683.28;;;11.82;100.00
18900;BME280;9582;52.018;6.306;2022-11-15T08:43:03;100672.78;;;11.82;100.00
18900;BME280;9582;52.018;6.306;2022-11-15T08:45:49;100676.19;;;11.84;100.00
18900;BME280;9582;52.018;6.306;2022-11-15T08:48:34;100669.22;;;11.83;100.00
18900;BME280;9582;52.018;6.306;2022-11-15T08:51:19;100667.09;;;11.91;100.00
18900;BME280;9582;52.018;6.306;2022-11-15T08:54:04;100667.25;;;11.88;100.00
18900;BME280;9582;52.018;6.306;2022-11-15T08:56:50;100664.22;;;11.95;100.00
18900;BME280;9582;52.018;6.306;2022-11-15T08:59:36;100666.56;;;12.00;100.00
18900;BME280;9582;52.018;6.306;2022-11-15T09:02:21;100673.34;;;12.04;100.00
18900;BME280;9582;52.018;6.306;2022-11-15T09:05:07;100666.25;;;12.06;100.00
18900;BME280;9582;52.018;6.306;2022-11-15T09:07:53;100662.72;;;12.07;100.00
18900;BME280;9582;52.018;6.306;2022-11-15T09:10:38;100663.72;;;12.04;100.00
18900;BME280;9582;52.018;6.306;2022-11-15T09:13:25;100655.00;;;12.04;100.00
18900;BME280;9582;52.018;6.306;2022-11-15T09:16:10;100655.59;;;12.09;100.00
18900;BME280;9582;52.018;6.306;2022-11-15T09:18:56;100658.16;;;12.10;100.00
18900;BME280;9582;52.018;6.306;2022-11-15T09:21:41;100661.53;;;12.12;100.00
18900;BME280;9582;52.018;6.306;2022-11-15T09:24:26;100661.59;;;12.11;100.00
18900;BME280;9582;52.018;6.306;2022-11-15T09:27:11;100658.66;;;12.17;100.00
18900;BME280;9582;52.018;6.306;2022-11-15T09:29:58;100663.25;;;12.13;100.00
18900;BME280;9582;52.018;6.306;2022-11-15T09:32:43;100662.47;;;12.11;100.00
18900;BME280;9582;52.018;6.306;2022-11-15T09:35:28;100658.06;;;12.12;100.00
18900;BME280;9582;52.018;6.306;2022-11-15T09:38:13;100662.38;;;12.13;100.00
18900;BME280;9582;52.018;6.306;2022-11-15T09:41:17;100654.75;;;12.08;100.00
18900;BME280;9582;52.018;6.306;2022-11-15T09:44:24;100650.13;;;12.13;100.00
18900;BME280;9582;52.018;6.306;2022-11-15T09:47:49;100648.97;;;12.19;100.00
18900;BME280;9582;52.018;6.306;2022-11-15T09:50:48;100645.06;;;12.26;100.00
18900;BME280;9582;52.018;6.306;2022-11-15T09:53:22;100643.03;;;12.31;100.00
18900;BME280;9582;52.018;6.306;2022-11-15T09:55:55;100639.16;;;12.38;100.00
18900;BME280;9582;52.018;6.306;2022-11-15T09:58:30;100639.13;;;12.54;100.00
18900;BME280;9582;52.018;6.306;2022-11-15T10:01:03;100637.19;;;12.57;100.00
18900;BME280;9582;52.018;6.306;2022-11-15T10:03:34;100625.53;;;12.47;100.00
18900;BME280;9582;52.018;6.306;2022-11-15T10:06:02;100622.94;;;12.47;100.00
18900;BME280;9582;52.018;6.306;2022-11-15T10:08:37;100619.94;;;12.53;100.00
18900;BME280;9582;52.018;6.306;2022-11-15T10:11:09;100608.19;;;12.60;100.00
18900;BME280;9582;52.018;6.306;2022-11-15T10:13:41;100620.53;;;12.58;100.00
18900;BME280;9582;52.018;6.306;2022-11-15T10:16:23;100610.81;;;12.60;100.00
18900;BME280;9582;52.018;6.306;2022-11-15T10:18:58;100604.03;;;12.56;100.00
18900;BME280;9582;52.018;6.306;2022-11-15T10:21:33;100607.06;;;12.64;100.00
18900;BME280;9582;52.018;6.306;2022-11-15T10:24:19;100605.50;;;12.92;100.00
18900;BME280;9582;52.018;6.306;2022-11-15T10:26:47;100601.31;;;13.03;100.00
18900;BME280;9582;52.018;6.306;2022-11-15T10:29:18;100600.16;;;13.09;100.00
18900;BME280;9582;52.018;6.306;2022-11-15T10:31:44;100596.50;;;13.11;100.00
18900;BME280;9582;52.018;6.306;2022-11-15T10:34:14;100588.81;;;13.08;100.00
18900;BME280;9582;52.018;6.306;2022-11-15T10:36:44;100586.19;;;13.08;100.00
18900;BME280;9582;52.018;6.306;2022-11-15T10:39:12;100590.56;;;13.08;100.00
18900;BME280;9582;52.018;6.306;2022-11-15T10:41:40;100579.38;;;13.04;100.00
18900;BME280;9582;52.018;6.306;2022-11-15T10:44:21;100581.25;;;13.02;100.00
18900;BME280;9582;52.018;6.306;2022-11-15T10:47:04;100582.63;;;12.94;100.00
18900;BME280;9582;52.018;6.306;2022-11-15T10:49:33;100580.56;;;12.99;100.00
18900;BME280;9582;52.018;6.306;2022-11-15T10:52:02;100578.97;;;12.96;100.00
18900;BME280;9582;52.018;6.306;2022-11-15T10:54:36;100580.56;;;12.99;100.00
18900;BME280;9582;52.018;6.306;2022-11-15T10:57:06;100579.22;;;13.07;100.00
18900;BME280;9582;52.018;6.306;2022-11-15T10:59:36;100566.19;;;13.06;100.00
18900;BME280;9582;52.018;6.306;2022-11-15T11:02:27;100559.09;;;13.08;100.00
18900;BME280;9582;52.018;6.306;2022-11-15T11:04:56;100556.09;;;13.14;100.00
18900;BME280;9582;52.018;6.306;2022-11-15T11:07:25;100554.56;;;13.10;100.00
18900;BME280;9582;52.018;6.306;2022-11-15T11:09:57;100548.66;;;13.06;100.00
18900;BME280;9582;52.018;6.306;2022-11-15T11:12:27;100542.59;;;13.20;100.00
18900;BME280;9582;52.018;6.306;2022-11-15T11:14:55;100525.72;;;13.24;100.00
18900;BME280;9582;52.018;6.306;2022-11-15T11:17:32;100524.59;;;13.28;100.00
18900;BME280;9582;52.018;6.306;2022-11-15T11:20:06;100522.28;;;13.23;100.00
18900;BME280;9582;52.018;6.306;2022-11-15T11:22:40;100515.69;;;13.16;100.00
18900;BME280;9582;52.018;6.306;2022-11-15T11:25:19;100521.59;;;13.20;100.00
18900;BME280;9582;52.018;6.306;2022-11-15T11:28:02;100521.44;;;13.23;100.00
18900;BME280;9582;52.018;6.306;2022-11-15T11:30:41;100522.34;;;13.22;100.00
18900;BME280;9582;52.018;6.306;2022-11-15T11:33:13;100521.50;;;13.21;100.00
18900;BME280;9582;52.018;6.306;2022-11-15T11:35:50;100521.97;;;13.14;100.00
18900;BME280;9582;52.018;6.306;2022-11-15T11:38:34;100525.53;;;13.13;100.00
18900;BME280;9582;52.018;6.306;2022-11-15T11:41:12;100509.34;;;13.20;100.00
18900;BME280;9582;52.018;6.306;2022-11-15T11:43:50;100510.63;;;13.13;100.00
18900;BME280;9582;52.018;6.306;2022-11-15T11:49:10;100507.31;;;13.10;100.00
18900;BME280;9582;52.018;6.306;2022-11-15T11:51:41;100498.06;;;13.18;100.00
18900;BME280;9582;52.018;6.306;2022-11-15T11:54:12;100504.69;;;13.10;100.00
18900;BME280;9582;52.018;6.306;2022-11-15T11:56:42;100504.81;;;13.08;100.00
18900;BME280;9582;52.018;6.306;2022-11-15T11:59:17;100501.41;;;13.06;100.00
18900;BME280;9582;52.018;6.306;2022-11-15T12:01:45;100499.19;;;13.14;100.00
18900;BME280;9582;52.018;6.306;2022-11-15T12:04:16;100511.38;;;13.15;100.00
18900;BME280;9582;52.018;6.306;2022-11-15T12:06:50;100506.78;;;13.19;100.00
18900;BME280;9582;52.018;6.306;2022-11-15T12:09:21;100498.53;;;13.11;100.00
18900;BME280;9582;52.018;6.306;2022-11-15T12:11:55;100512.31;;;13.14;100.00
18900;BME280;9582;52.018;6.306;2022-11-15T12:14:29;100493.00;;;13.15;100.00
18900;BME280;9582;52.018;6.306;2022-11-15T12:16:58;100497.59;;;13.12;100.00
18900;BME280;9582;52.018;6.306;2022-11-15T12:19:25;100488.47;;;13.03;100.00
18900;BME280;9582;52.018;6.306;2022-11-15T12:21:57;100476.19;;;13.04;100.00
18900;BME280;9582;52.018;6.306;2022-11-15T12:24:28;100480.28;;;12.94;100.00
18900;BME280;9582;52.018;6.306;2022-11-15T12:27:00;100475.16;;;12.92;100.00
18900;BME280;9582;52.018;6.306;2022-11-15T12:29:32;100450.38;;;12.96;100.00
18900;BME280;9582;52.018;6.306;2022-11-15T12:32:00;100454.22;;;12.91;100.00
18900;BME280;9582;52.018;6.306;2022-11-15T12:34:38;100438.00;;;12.98;100.00
18900;BME280;9582;52.018;6.306;2022-11-15T12:40:35;100436.34;;;12.97;100.00
18900;BME280;9582;52.018;6.306;2022-11-15T12:46:05;100428.16;;;13.02;100.00
18900;BME280;9582;52.018;6.306;2022-11-15T12:48:50;100418.81;;;12.98;100.00
18900;BME280;9582;52.018;6.306;2022-11-15T12:51:20;100416.81;;;13.01;100.00
18900;BME280;9582;52.018;6.306;2022-11-15T12:53:47;100413.38;;;13.01;100.00
18900;BME280;9582;52.018;6.306;2022-11-15T12:56:24;100413.66;;;12.96;100.00
18900;BME280;9582;52.018;6.306;2022-11-15T12:58:56;100402.13;;;12.99;100.00
18900;BME280;9582;52.018;6.306;2022-11-15T13:01:59;100401.25;;;12.98;100.00
18900;BME280;9582;52.018;6.306;2022-11-15T13:04:29;100388.63;;;13.05;100.00
18900;BME280;9582;52.018;6.306;2022-11-15T13:06:59;100383.38;;;13.05;100.00
18900;BME280;9582;52.018;6.306;2022-11-15T13:09:54;100373.81;;;13.04;100.00
18900;BME280;9582;52.018;6.306;2022-11-15T13:12:51;100376.75;;;13.13;100.00
18900;BME280;9582;52.018;6.306;2022-11-15T13:15:53;100369.34;;;13.20;100.00
18900;BME280;9582;52.018;6.306;2022-11-15T13:18:33;100370.81;;;13.24;100.00
18900;BME280;9582;52.018;6.306;2022-11-15T13:21:01;100368.28;;;13.22;100.00
18900;BME280;9582;52.018;6.306;2022-11-15T13:23:52;100370.06;;;13.22;100.00
18900;BME280;9582;52.018;6.306;2022-11-15T13:26:19;100358.66;;;13.23;100.00
18900;BME280;9582;52.018;6.306;2022-11-15T13:28:48;100359.69;;;13.20;100.00
18900;BME280;9582;52.018;6.306;2022-11-15T13:31:24;100356.22;;;13.20;100.00
18900;BME280;9582;52.018;6.306;2022-11-15T13:33:52;100349.38;;;13.17;100.00
18900;BME280;9582;52.018;6.306;2022-11-15T13:36:20;100351.16;;;13.17;100.00
18900;BME280;9582;52.018;6.306;2022-11-15T13:38:55;100340.72;;;13.15;100.00
18900;BME280;9582;52.018;6.306;2022-11-15T13:41:24;100335.13;;;13.07;100.00
18900;BME280;9582;52.018;6.306;2022-11-15T13:43:53;100330.34;;;13.00;100.00
18900;BME280;9582;52.018;6.306;2022-11-15T13:46:21;100328.81;;;12.96;100.00
18900;BME280;9582;52.018;6.306;2022-11-15T13:48:52;100328.81;;;12.96;100.00
18900;BME280;9582;52.018;6.306;2022-11-15T13:51:22;100332.78;;;12.89;100.00
18900;BME280;9582;52.018;6.306;2022-11-15T13:53:53;100332.78;;;12.89;100.00
18900;BME280;9582;52.018;6.306;2022-11-15T13:56:20;100329.97;;;12.92;100.00
18900;BME280;9582;52.018;6.306;2022-11-15T13:58:48;100331.56;;;12.94;100.00
18900;BME280;9582;52.018;6.306;2022-11-15T14:01:18;100320.94;;;12.96;100.00
18900;BME280;9582;52.018;6.306;2022-11-15T14:03:52;100319.34;;;12.93;100.00
18900;BME280;9582;52.018;6.306;2022-11-15T14:06:21;100315.06;;;12.92;100.00
18900;BME280;9582;52.018;6.306;2022-11-15T14:09:18;100310.88;;;12.90;100.00
18900;BME280;9582;52.018;6.306;2022-11-15T14:11:52;100305.81;;;12.87;100.00
18900;BME280;9582;52.018;6.306;2022-11-15T14:14:21;100312.09;;;12.84;100.00
18900;BME280;9582;52.018;6.306;2022-11-15T14:16:50;100305.03;;;12.85;100.00
18900;BME280;9582;52.018;6.306;2022-11-15T14:19:36;100304.47;;;12.80;100.00
18900;BME280;9582;52.018;6.306;2022-11-15T14:22:15;100303.75;;;12.78;100.00
18900;BME280;9582;52.018;6.306;2022-11-15T14:24:44;100296.34;;;12.70;100.00